Time;durP1;ratioP1;P1;durP2;ratioP2;P2;SDS_P1;SDS_P2;PMS_P1;PMS_P2;Temp;Humidity;BMP_temperature;BMP_pressure;BME280_temperature;BME280_humidity;BME280_pressure;Samples;Min_cycle;Max_cycle;Signal;HPM_P1;HPM_P2
2024/02/11 00:00:30;;;;;;;;;;;;;;;21.60;28.61;97238.03;5007513;28;1143;-77
2024/02/11 00:02:56;;;;;;;;;;;;;;;21.45;29.01;97231.31;5023344;28;932;-76
2024/02/11 00:05:22;;;;;;;;;;;;;;;21.67;29.04;97232.09;5023943;28;894;-77
2024/02/11 00:07:49;;;;;;;;;;;;;;;21.76;28.48;97226.50;5006532;28;974;-77
2024/02/11 00:10:14;;;;;;;;;;;;;;;21.82;28.83;97250.13;5007104;28;948;-77
2024/02/11 00:12:40;;;;;;;;;;;;;;;21.69;28.90;97252.22;5023882;28;1230;-77
2024/02/11 00:15:07;;;;;;;;;;;;;;;21.51;29.11;97252.16;4989018;28;1077;-77
2024/02/11 00:17:32;;;;;;;;;;;;;;;21.67;28.44;97260.41;5025158;28;1960;-77
2024/02/11 00:19:59;;;;;;;;;;;;;;;21.39;29.15;97256.59;5023182;28;1045;-77
2024/02/11 00:22:25;;;;;;;;;;;;;;;21.70;28.68;97250.97;5008095;28;1010;-77
2024/02/11 00:24:51;;;;;;;;;;;;;;;21.74;28.76;97257.28;5023473;28;992;-77
2024/02/11 00:27:16;;;;;;;;;;;;;;;21.76;28.78;97251.97;5023818;28;1225;-77
2024/02/11 00:29:42;;;;;;;;;;;;;;;21.76;28.52;97257.63;5022384;28;946;-77
2024/02/11 00:32:07;;;;;;;;;;;;;;;21.55;28.87;97258.44;5007101;28;1120;-77
2024/02/11 00:34:33;;;;;;;;;;;;;;;21.48;28.78;97251.00;5006049;28;948;-77
2024/02/11 00:36:58;;;;;;;;;;;;;;;21.38;29.32;97255.03;5023031;28;1887;-77
2024/02/11 00:39:24;;;;;;;;;;;;;;;21.61;29.11;97250.94;5023221;28;909;-77
2024/02/11 00:41:50;;;;;;;;;;;;;;;21.82;28.69;97235.94;5007045;28;1132;-77
2024/02/11 00:44:16;;;;;;;;;;;;;;;21.35;29.24;97243.84;5024052;28;1017;-77
2024/02/11 00:46:41;;;;;;;;;;;;;;;21.43;29.10;97250.81;5024677;28;1070;-77
2024/02/11 00:49:08;;;;;;;;;;;;;;;21.39;29.09;97250.94;5022817;28;1001;-76
2024/02/11 00:51:34;;;;;;;;;;;;;;;21.41;29.21;97256.16;5007229;28;886;-77
2024/02/11 00:54:00;;;;;;;;;;;;;;;21.72;28.74;97245.66;5005808;28;1156;-77
2024/02/11 00:56:25;;;;;;;;;;;;;;;21.85;28.59;97237.84;5022683;28;1891;-77
2024/02/11 00:58:51;;;;;;;;;;;;;;;21.82;28.42;97244.44;5021732;28;1009;-77
2024/02/11 01:01:16;;;;;;;;;;;;;;;22.13;28.29;97240.03;5024665;28;918;-77
2024/02/11 01:03:42;;;;;;;;;;;;;;;21.61;28.73;97236.78;5022227;28;926;-77
2024/02/11 01:06:10;;;;;;;;;;;;;;;21.68;28.47;97236.50;4974366;28;1136;-77
2024/02/11 01:08:35;;;;;;;;;;;;;;;21.40;28.93;97238.41;5020889;28;960;-77
2024/02/11 01:11:01;;;;;;;;;;;;;;;21.33;29.60;97213.19;5007645;28;892;-76
2024/02/11 01:13:27;;;;;;;;;;;;;;;21.71;28.95;97224.25;5019966;28;900;-77
2024/02/11 01:15:52;;;;;;;;;;;;;;;21.87;28.42;97222.44;5023512;28;1021;-76
2024/02/11 01:18:18;;;;;;;;;;;;;;;21.83;28.79;97223.38;5004537;28;1963;-76
2024/02/11 01:20:43;;;;;;;;;;;;;;;21.70;28.61;97219.84;5023322;28;960;-77
2024/02/11 01:23:09;;;;;;;;;;;;;;;21.71;28.69;97204.44;5022737;28;964;-77
2024/02/11 01:25:35;;;;;;;;;;;;;;;21.54;28.70;97205.91;5006758;28;1312;-76
2024/02/11 01:28:00;;;;;;;;;;;;;;;22.04;28.51;97213.22;5005201;28;1366;-76
2024/02/11 01:30:26;;;;;;;;;;;;;;;21.85;28.61;97220.06;5005868;28;878;-77
2024/02/11 01:32:57;;;;;;;;;;;;;;;21.72;28.77;97220.16;4987963;28;1192;-77
2024/02/11 01:35:22;;;;;;;;;;;;;;;21.85;28.54;97203.84;5001103;28;1036;-76
2024/02/11 01:37:48;;;;;;;;;;;;;;;21.85;28.54;97198.19;4985105;28;1898;-76
2024/02/11 01:40:17;;;;;;;;;;;;;;;21.34;29.11;97203.44;4984303;28;992;-77
2024/02/11 01:42:45;;;;;;;;;;;;;;;21.35;29.37;97204.22;4969803;28;1286;-77
2024/02/11 01:45:14;;;;;;;;;;;;;;;21.38;29.49;97186.34;4968722;28;971;-76
2024/02/11 01:47:43;;;;;;;;;;;;;;;21.65;29.09;97168.69;4946573;29;1291;-76
2024/02/11 01:50:08;;;;;;;;;;;;;;;21.62;28.99;97181.75;4961027;28;959;-77
2024/02/11 01:52:34;;;;;;;;;;;;;;;21.65;29.02;97183.63;4962794;28;923;-77
2024/02/11 01:55:00;;;;;;;;;;;;;;;21.40;29.09;97183.81;4961849;28;1031;-77
2024/02/11 01:57:25;;;;;;;;;;;;;;;21.57;29.15;97194.47;4962529;28;1895;-76
2024/02/11 01:59:51;;;;;;;;;;;;;;;21.73;28.99;97184.94;4961596;28;975;-76
2024/02/11 02:02:17;;;;;;;;;;;;;;;21.89;28.71;97166.13;4962894;29;959;-77
2024/02/11 02:04:43;;;;;;;;;;;;;;;21.74;28.76;97158.19;4945311;29;1084;-77
2024/02/11 02:07:09;;;;;;;;;;;;;;;21.68;28.65;97171.38;4978621;28;982;-77
2024/02/11 02:09:34;;;;;;;;;;;;;;;21.53;28.79;97170.38;4984261;28;942;-77
2024/02/11 02:12:04;;;;;;;;;;;;;;;21.41;29.29;97152.25;5002029;28;1257;-76
2024/02/11 02:14:30;;;;;;;;;;;;;;;21.55;29.34;97157.34;5000328;28;930;-76
2024/02/11 02:16:56;;;;;;;;;;;;;;;21.71;28.90;97156.31;4985066;28;1950;-77
2024/02/11 02:19:21;;;;;;;;;;;;;;;21.73;28.79;97156.63;4983808;28;1047;-77
2024/02/11 02:21:47;;;;;;;;;;;;;;;21.71;28.77;97161.97;4984917;28;1339;-76
2024/02/11 02:24:13;;;;;;;;;;;;;;;21.36;29.38;97154.88;4984642;28;965;-77
2024/02/11 02:26:38;;;;;;;;;;;;;;;21.60;28.94;97170.06;4989216;28;1039;-77
2024/02/11 02:29:04;;;;;;;;;;;;;;;21.79;28.93;97170.94;4987412;28;1078;-77
2024/02/11 02:31:29;;;;;;;;;;;;;;;21.83;28.63;97180.88;4941307;28;1034;-77
2024/02/11 02:33:55;;;;;;;;;;;;;;;21.84;28.95;97193.78;5015521;28;927;-77
2024/02/11 02:36:20;;;;;;;;;;;;;;;21.87;28.60;97200.56;5025863;28;1883;-77
2024/02/11 02:38:46;;;;;;;;;;;;;;;21.67;28.65;97203.78;5025030;28;1044;-77
2024/02/11 02:41:11;;;;;;;;;;;;;;;21.43;29.14;97214.81;5027528;28;934;-77
2024/02/11 02:43:37;;;;;;;;;;;;;;;21.36;29.33;97225.63;5024689;28;1008;-77
2024/02/11 02:46:02;;;;;;;;;;;;;;;21.52;29.41;97226.19;5005787;28;977;-77
2024/02/11 02:48:28;;;;;;;;;;;;;;;21.79;29.00;97225.53;4970285;28;1327;-76
2024/02/11 02:50:54;;;;;;;;;;;;;;;21.54;29.09;97239.88;4956637;28;1001;-76
2024/02/11 02:53:19;;;;;;;;;;;;;;;21.58;28.98;97246.19;5002819;28;920;-77
2024/02/11 02:55:46;;;;;;;;;;;;;;;21.39;29.28;97233.19;4988988;28;1012;-76
2024/02/11 02:58:14;;;;;;;;;;;;;;;21.28;29.55;97223.03;5003203;28;1883;-77
2024/02/11 03:00:39;;;;;;;;;;;;;;;21.67;28.83;97232.09;4989069;28;1013;-76
2024/02/11 03:03:06;;;;;;;;;;;;;;;21.89;28.79;97229.22;4987024;28;1004;-77
2024/02/11 03:05:34;;;;;;;;;;;;;;;21.72;28.96;97223.00;4984452;28;1110;-77
2024/02/11 03:08:00;;;;;;;;;;;;;;;21.74;28.80;97220.47;4952509;28;1159;-77
2024/02/11 03:10:25;;;;;;;;;;;;;;;21.75;28.72;97222.06;4984354;28;955;-76
2024/02/11 03:12:51;;;;;;;;;;;;;;;21.49;28.81;97232.00;4968184;28;950;-77
2024/02/11 03:15:16;;;;;;;;;;;;;;;21.53;29.43;97219.28;4964841;28;951;-77
2024/02/11 03:17:42;;;;;;;;;;;;;;;21.82;28.95;97210.47;4964051;28;1914;-76
2024/02/11 03:20:08;;;;;;;;;;;;;;;21.69;29.19;97198.44;4984027;28;1357;-76
2024/02/11 03:22:34;;;;;;;;;;;;;;;21.66;28.90;97196.56;4945964;29;978;-77
2024/02/11 03:24:59;;;;;;;;;;;;;;;21.65;29.03;97200.63;4928636;29;1312;-76
2024/02/11 03:27:25;;;;;;;;;;;;;;;21.47;28.85;97217.53;4930360;29;1130;-77
2024/02/11 03:29:50;;;;;;;;;;;;;;;21.39;28.95;97222.66;4944753;29;1112;-76
2024/02/11 03:32:16;;;;;;;;;;;;;;;21.57;28.94;97227.66;4930269;29;931;-77
2024/02/11 03:34:41;;;;;;;;;;;;;;;21.70;28.79;97236.81;4912621;29;921;-76
2024/02/11 03:37:07;;;;;;;;;;;;;;;21.89;28.60;97239.75;4930403;29;1914;-76
2024/02/11 03:39:34;;;;;;;;;;;;;;;21.63;28.77;97234.28;4928826;29;933;-77
2024/02/11 03:41:59;;;;;;;;;;;;;;;21.49;28.89;97200.84;4900952;29;1524;-76
2024/02/11 03:44:25;;;;;;;;;;;;;;;21.41;29.12;97171.28;4947179;28;1008;-77
2024/02/11 03:46:50;;;;;;;;;;;;;;;21.37;29.35;97168.56;4949817;29;1164;-76
2024/02/11 03:49:16;;;;;;;;;;;;;;;21.70;28.83;97183.03;4947552;28;1023;-77
2024/02/11 03:51:41;;;;;;;;;;;;;;;21.75;28.62;97190.13;4968717;28;923;-77
2024/02/11 03:54:07;;;;;;;;;;;;;;;21.79;28.51;97193.59;4985970;28;1024;-77
2024/02/11 03:56:35;;;;;;;;;;;;;;;21.84;28.64;97196.63;4971829;28;1910;-77
2024/02/11 03:59:02;;;;;;;;;;;;;;;21.63;29.03;97186.16;4984044;28;965;-77
2024/02/11 04:01:27;;;;;;;;;;;;;;;21.55;29.07;97184.84;4987259;28;971;-77
2024/02/11 04:03:53;;;;;;;;;;;;;;;21.25;29.18;97181.53;5001869;28;1013;-77
2024/02/11 04:06:20;;;;;;;;;;;;;;;21.69;28.78;97170.13;4986996;28;906;-77
2024/02/11 04:08:46;;;;;;;;;;;;;;;21.66;28.84;97170.25;4969165;28;794;-77
2024/02/11 04:11:12;;;;;;;;;;;;;;;22.03;28.48;97177.66;4987478;28;942;-77
2024/02/11 04:13:37;;;;;;;;;;;;;;;21.72;28.49;97191.84;4985151;28;929;-77
2024/02/11 04:16:11;;;;;;;;;;;;;;;21.55;29.02;97184.84;5004179;28;970;-77
2024/02/11 04:18:40;;;;;;;;;;;;;;;21.53;28.84;97179.66;4970321;28;944;-77
2024/02/11 04:21:05;;;;;;;;;;;;;;;21.50;28.90;97168.47;4987609;28;984;-77
2024/02/11 04:23:32;;;;;;;;;;;;;;;21.57;29.19;97165.38;4968965;28;1075;-77
2024/02/11 04:25:58;;;;;;;;;;;;;;;21.75;28.68;97147.66;4984442;28;898;-77
2024/02/11 04:28:23;;;;;;;;;;;;;;;21.87;28.65;97151.66;4948546;28;1235;-78
2024/02/11 04:30:49;;;;;;;;;;;;;;;21.78;28.74;97136.19;4968197;28;875;-78
2024/02/11 04:33:20;;;;;;;;;;;;;;;21.51;29.09;97144.59;5001392;28;911;-77
2024/02/11 04:35:49;;;;;;;;;;;;;;;21.54;28.87;97149.31;4987468;28;1243;-77
2024/02/11 04:38:15;;;;;;;;;;;;;;;21.68;29.09;97147.94;5001001;28;1895;-77
2024/02/11 04:40:41;;;;;;;;;;;;;;;21.64;29.24;97148.09;4986887;28;1139;-77
2024/02/11 04:43:06;;;;;;;;;;;;;;;21.96;28.81;97163.75;4984851;28;970;-77
2024/02/11 04:45:32;;;;;;;;;;;;;;;21.91;28.72;97160.75;4986259;28;1209;-77
2024/02/11 04:48:03;;;;;;;;;;;;;;;21.41;29.42;97162.78;4981071;28;1019;-77
2024/02/11 04:50:29;;;;;;;;;;;;;;;21.42;29.41;97159.47;4951273;28;865;-78
2024/02/11 04:52:56;;;;;;;;;;;;;;;21.67;28.63;97152.81;4949310;28;1261;-77
2024/02/11 04:55:27;;;;;;;;;;;;;;;21.33;28.96;97145.28;4949791;28;725;-77
2024/02/11 04:58:04;;;;;;;;;;;;;;;21.55;29.38;97148.03;4999210;28;1958;-77
2024/02/11 05:00:34;;;;;;;;;;;;;;;21.57;29.41;97154.03;5001542;28;822;-77
2024/02/11 05:02:59;;;;;;;;;;;;;;;21.88;28.78;97158.88;4985160;28;926;-77
2024/02/11 05:05:31;;;;;;;;;;;;;;;21.89;28.83;97166.13;4985271;28;724;-77
2024/02/11 05:08:07;;;;;;;;;;;;;;;21.44;29.25;97173.94;4984619;28;819;-77
2024/02/11 05:10:39;;;;;;;;;;;;;;;21.45;29.11;97186.03;4986044;28;799;-77
2024/02/11 05:13:05;;;;;;;;;;;;;;;21.58;29.40;97195.25;4984538;28;808;-78
2024/02/11 05:15:31;;;;;;;;;;;;;;;21.60;29.38;97192.72;4985388;28;890;-77
2024/02/11 05:17:56;;;;;;;;;;;;;;;21.74;29.34;97199.88;4986103;28;1918;-77
2024/02/11 05:20:22;;;;;;;;;;;;;;;21.70;29.38;97197.19;5021298;28;822;-77
2024/02/11 05:22:49;;;;;;;;;;;;;;;21.73;29.20;97207.59;5006151;28;1108;-78
2024/02/11 05:25:20;;;;;;;;;;;;;;;21.64;28.85;97204.72;5021320;28;806;-77
2024/02/11 05:27:55;;;;;;;;;;;;;;;21.79;28.87;97208.56;5022280;28;1171;-77
2024/02/11 05:30:23;;;;;;;;;;;;;;;21.53;29.27;97215.66;5021936;28;806;-77
2024/02/11 05:32:50;;;;;;;;;;;;;;;21.65;29.11;97211.94;5005434;28;1148;-78
2024/02/11 05:35:17;;;;;;;;;;;;;;;21.80;29.01;97212.97;5021497;28;1132;-78
2024/02/11 05:37:46;;;;;;;;;;;;;;;21.82;28.92;97213.28;5021488;28;1910;-77
2024/02/11 05:40:11;;;;;;;;;;;;;;;21.78;29.06;97209.81;4965318;28;969;-78
2024/02/11 05:42:40;;;;;;;;;;;;;;;21.69;28.81;97195.59;4982069;28;915;-78
2024/02/11 05:45:09;;;;;;;;;;;;;;;21.67;28.92;97186.81;4964655;28;791;-77
2024/02/11 05:47:34;;;;;;;;;;;;;;;21.45;29.44;97197.38;4949744;28;839;-77
2024/02/11 05:50:00;;;;;;;;;;;;;;;21.62;29.14;97204.41;4948719;28;925;-77
2024/02/11 05:52:25;;;;;;;;;;;;;;;21.74;28.99;97208.38;4966642;28;879;-77
2024/02/11 05:54:51;;;;;;;;;;;;;;;21.69;29.10;97195.59;4964454;28;795;-77
2024/02/11 05:57:17;;;;;;;;;;;;;;;21.77;28.78;97196.91;4966173;28;1911;-77
2024/02/11 05:59:42;;;;;;;;;;;;;;;21.50;29.24;97205.25;4964591;28;978;-78
2024/02/11 06:02:09;;;;;;;;;;;;;;;21.50;28.90;97205.25;4965642;28;894;-77
2024/02/11 06:04:34;;;;;;;;;;;;;;;21.54;29.28;97208.75;4964677;28;816;-77
2024/02/11 06:06:59;;;;;;;;;;;;;;;21.70;29.14;97214.16;4950285;28;1014;-77
2024/02/11 06:09:25;;;;;;;;;;;;;;;21.72;29.00;97211.69;4948686;28;1093;-77
2024/02/11 06:11:53;;;;;;;;;;;;;;;21.91;28.74;97228.72;4974098;28;997;-77
2024/02/11 06:14:19;;;;;;;;;;;;;;;21.76;28.89;97218.00;4964148;28;844;-77
2024/02/11 06:16:45;;;;;;;;;;;;;;;21.87;28.69;97223.22;4924100;29;1977;-79
2024/02/11 06:19:10;;;;;;;;;;;;;;;21.65;28.79;97234.59;4906722;29;807;-78
2024/02/11 06:21:36;;;;;;;;;;;;;;;21.60;29.00;97246.50;4925019;29;921;-78
2024/02/11 06:24:05;;;;;;;;;;;;;;;21.62;29.25;97246.06;4907247;29;1154;-77
2024/02/11 06:26:30;;;;;;;;;;;;;;;21.46;29.74;97241.41;4908232;29;1270;-77
2024/02/11 06:28:58;;;;;;;;;;;;;;;21.61;29.51;97239.63;4921971;29;1071;-78
2024/02/11 06:31:24;;;;;;;;;;;;;;;21.72;29.04;97244.88;4924301;29;784;-77
2024/02/11 06:33:49;;;;;;;;;;;;;;;21.73;28.88;97220.97;4922216;29;1265;-77
2024/02/11 06:36:16;;;;;;;;;;;;;;;21.44;29.04;97224.09;4924270;29;1907;-77
2024/02/11 06:38:43;;;;;;;;;;;;;;;21.29;29.33;97230.25;4906240;29;835;-77
2024/02/11 06:41:09;;;;;;;;;;;;;;;21.55;29.44;97232.97;4924160;29;1006;-77
2024/02/11 06:43:35;;;;;;;;;;;;;;;21.67;29.38;97240.59;4924219;28;877;-78
2024/02/11 06:46:03;;;;;;;;;;;;;;;21.77;29.05;97247.88;4950159;28;776;-77
2024/02/11 06:48:28;;;;;;;;;;;;;;;21.74;29.26;97242.34;4979049;28;810;-77
2024/02/11 06:50:54;;;;;;;;;;;;;;;21.71;28.93;97227.09;4982408;28;732;-78
2024/02/11 06:53:20;;;;;;;;;;;;;;;21.26;29.61;97230.41;4953974;28;949;-76
2024/02/11 06:55:46;;;;;;;;;;;;;;;21.40;29.80;97223.44;5022783;28;712;-77
2024/02/11 06:58:11;;;;;;;;;;;;;;;21.55;29.66;97210.31;5021182;28;1980;-77
2024/02/11 07:00:37;;;;;;;;;;;;;;;21.83;28.95;97205.59;5022988;28;831;-77
2024/02/11 07:03:03;;;;;;;;;;;;;;;21.59;29.20;97208.13;5019806;28;1084;-77
2024/02/11 07:05:30;;;;;;;;;;;;;;;21.39;29.76;97213.38;5021814;28;818;-77
2024/02/11 07:07:59;;;;;;;;;;;;;;;21.31;29.90;97202.34;5004278;28;866;-77
2024/02/11 07:10:25;;;;;;;;;;;;;;;21.46;29.53;97210.28;5021071;28;1145;-77
2024/02/11 07:12:51;;;;;;;;;;;;;;;21.61;29.34;97200.00;5024503;28;747;-77
2024/02/11 07:15:16;;;;;;;;;;;;;;;21.75;29.09;97205.06;5024775;28;849;-77
2024/02/11 07:17:42;;;;;;;;;;;;;;;21.94;28.80;97202.31;5007973;28;1902;-78
2024/02/11 07:20:11;;;;;;;;;;;;;;;21.54;28.97;97205.91;5024976;28;765;-77
2024/02/11 07:22:38;;;;;;;;;;;;;;;21.63;29.04;97194.63;5024098;28;728;-78
2024/02/11 07:25:04;;;;;;;;;;;;;;;21.58;28.82;97201.69;5023273;28;794;-77
2024/02/11 07:27:31;;;;;;;;;;;;;;;21.50;29.28;97185.44;5025297;28;1195;-77
2024/02/11 07:29:56;;;;;;;;;;;;;;;21.67;29.18;97186.81;5023218;28;739;-77
2024/02/11 07:32:22;;;;;;;;;;;;;;;21.87;28.63;97188.47;5007442;28;854;-78
2024/02/11 07:34:47;;;;;;;;;;;;;;;21.81;28.92;97196.75;5023112;28;914;-77
2024/02/11 07:37:13;;;;;;;;;;;;;;;21.39;29.21;97187.91;5024702;28;2000;-77
2024/02/11 07:39:38;;;;;;;;;;;;;;;21.47;29.19;97194.88;5024483;28;711;-77
2024/02/11 07:42:04;;;;;;;;;;;;;;;21.57;28.88;97196.50;5025811;28;800;-77
2024/02/11 07:44:29;;;;;;;;;;;;;;;21.54;28.82;97194.59;5024226;28;743;-78
2024/02/11 07:46:55;;;;;;;;;;;;;;;21.77;29.05;97201.78;5024731;28;786;-77
2024/02/11 07:49:21;;;;;;;;;;;;;;;21.79;29.07;97199.28;5022836;28;786;-77
2024/02/11 07:51:47;;;;;;;;;;;;;;;21.79;28.78;97199.28;5025783;28;929;-77
2024/02/11 07:54:13;;;;;;;;;;;;;;;21.73;29.09;97206.81;5022705;28;794;-77
2024/02/11 07:56:39;;;;;;;;;;;;;;;21.55;29.30;97224.47;5025542;28;1898;-77
2024/02/11 07:59:04;;;;;;;;;;;;;;;21.70;28.83;97245.31;5022753;28;744;-77
2024/02/11 08:01:33;;;;;;;;;;;;;;;21.44;29.32;97258.84;5025707;28;858;-77
2024/02/11 08:03:59;;;;;;;;;;;;;;;21.83;28.41;97265.84;5005361;28;802;-77
2024/02/11 08:06:25;;;;;;;;;;;;;;;21.62;29.37;97263.84;5023916;28;748;-77
2024/02/11 08:08:51;;;;;;;;;;;;;;;21.73;29.16;97283.25;5023467;28;732;-77
2024/02/11 08:11:17;;;;;;;;;;;;;;;21.66;29.25;97277.84;5025110;28;775;-78
2024/02/11 08:13:43;;;;;;;;;;;;;;;21.59;29.07;97276.09;5023028;28;806;-77
2024/02/11 08:16:11;;;;;;;;;;;;;;;21.51;29.35;97286.09;5025894;28;1017;-77
2024/02/11 08:18:37;;;;;;;;;;;;;;;21.50;29.35;97290.16;5022422;28;1910;-78
2024/02/11 08:21:04;;;;;;;;;;;;;;;21.57;29.40;97292.75;4984183;28;1102;-77
2024/02/11 08:23:30;;;;;;;;;;;;;;;21.72;29.27;97290.97;4965527;28;959;-77
2024/02/11 08:25:55;;;;;;;;;;;;;;;21.83;28.84;97285.66;4951881;28;1247;-77
2024/02/11 08:28:21;;;;;;;;;;;;;;;21.68;28.96;97278.19;4981133;28;1435;-77
2024/02/11 08:30:47;;;;;;;;;;;;;;;21.46;29.38;97276.16;4983559;28;752;-77
2024/02/11 08:33:12;;;;;;;;;;;;;;;21.39;29.30;97258.66;4981938;28;859;-77
2024/02/11 08:35:38;;;;;;;;;;;;;;;21.53;29.01;97260.94;4983245;28;803;-78
2024/02/11 08:38:03;;;;;;;;;;;;;;;21.73;29.19;97263.44;4982256;28;1906;-77
2024/02/11 08:40:30;;;;;;;;;;;;;;;21.82;29.05;97261.44;4966996;28;802;-77
2024/02/11 08:42:55;;;;;;;;;;;;;;;21.89;28.89;97265.25;4965778;28;898;-77
2024/02/11 08:45:21;;;;;;;;;;;;;;;21.91;28.54;97268.38;4965978;28;744;-77
2024/02/11 08:47:47;;;;;;;;;;;;;;;21.50;29.01;97267.53;4966261;28;873;-77
2024/02/11 08:50:14;;;;;;;;;;;;;;;21.56;28.87;97260.03;4965989;28;751;-77
2024/02/11 08:52:40;;;;;;;;;;;;;;;21.35;29.35;97260.81;5014126;28;958;-78
2024/02/11 08:55:06;;;;;;;;;;;;;;;21.74;29.09;97271.44;5005331;28;886;-77
2024/02/11 08:57:31;;;;;;;;;;;;;;;21.81;28.82;97264.72;5024260;28;1890;-77
2024/02/11 08:59:57;;;;;;;;;;;;;;;21.36;29.54;97259.59;5022648;28;728;-77
2024/02/11 09:02:25;;;;;;;;;;;;;;;21.36;29.41;97256.75;5006281;28;776;-77
2024/02/11 09:04:50;;;;;;;;;;;;;;;21.54;28.81;97257.66;4980677;28;1184;-77
2024/02/11 09:07:18;;;;;;;;;;;;;;;21.77;28.78;97264.88;4967032;28;904;-78
2024/02/11 09:09:43;;;;;;;;;;;;;;;21.78;28.99;97263.63;4965393;28;973;-77
2024/02/11 09:12:09;;;;;;;;;;;;;;;21.84;29.06;97264.59;4963363;29;898;-77
2024/02/11 09:14:37;;;;;;;;;;;;;;;21.89;28.76;97265.25;4961450;29;987;-77
2024/02/11 09:17:02;;;;;;;;;;;;;;;21.61;29.15;97278.47;4963983;29;1879;-78
2024/02/11 09:19:31;;;;;;;;;;;;;;;21.27;29.52;97274.44;4946178;29;1006;-77
2024/02/11 09:22:05;;;;;;;;;;;;;;;21.07;29.52;97280.41;4943936;29;1163;-77
2024/02/11 09:24:31;;;;;;;;;;;;;;;21.38;29.78;97277.69;4942325;29;817;-77
2024/02/11 09:26:57;;;;;;;;;;;;;;;21.83;28.99;97279.22;4928720;29;933;-77
2024/02/11 09:29:22;;;;;;;;;;;;;;;22.03;28.45;97270.34;4927120;29;1143;-78
2024/02/11 09:31:49;;;;;;;;;;;;;;;21.70;28.75;97275.66;4928426;29;1056;-77
2024/02/11 09:34:15;;;;;;;;;;;;;;;21.62;28.89;97272.34;4942510;29;950;-77
2024/02/11 09:36:40;;;;;;;;;;;;;;;21.47;29.10;97268.47;4960477;28;1906;-77
2024/02/11 09:39:06;;;;;;;;;;;;;;;21.82;28.82;97269.94;4980886;28;784;-77
2024/02/11 09:41:32;;;;;;;;;;;;;;;21.76;28.78;97268.16;4982523;28;807;-77
2024/02/11 09:44:05;;;;;;;;;;;;;;;21.84;28.56;97263.81;4980441;28;1162;-77
2024/02/11 09:46:34;;;;;;;;;;;;;;;21.71;29.00;97265.91;4982333;28;779;-77
2024/02/11 09:49:20;;;;;;;;;;;;;;;21.45;29.28;97256.81;4980564;28;822;-77
2024/02/11 09:51:46;;;;;;;;;;;;;;;21.33;29.42;97281.88;4982850;28;942;-77
2024/02/11 09:54:12;;;;;;;;;;;;;;;21.39;29.13;97275.63;5021255;28;814;-77
2024/02/11 09:56:38;;;;;;;;;;;;;;;21.67;29.30;97283.06;5006153;28;1898;-77
2024/02/11 09:59:04;;;;;;;;;;;;;;;21.83;28.99;97279.22;5020621;28;854;-77
2024/02/11 10:01:32;;;;;;;;;;;;;;;21.96;28.73;97276.28;5022921;28;977;-77
2024/02/11 10:03:57;;;;;;;;;;;;;;;21.63;28.92;97276.75;4988274;28;942;-77
2024/02/11 10:06:25;;;;;;;;;;;;;;;21.59;29.06;97267.59;5006081;28;1040;-78
2024/02/11 10:08:50;;;;;;;;;;;;;;;21.47;29.40;97263.59;5020274;28;759;-77
2024/02/11 10:11:18;;;;;;;;;;;;;;;21.27;29.72;97272.38;5006349;28;862;-78
2024/02/11 10:13:44;;;;;;;;;;;;;;;21.58;29.36;97258.31;5019829;28;917;-77
2024/02/11 10:16:12;;;;;;;;;;;;;;;21.77;28.99;97258.44;5006258;28;831;-77
2024/02/11 10:18:39;;;;;;;;;;;;;;;21.72;29.13;97268.31;5003369;28;1976;-77
2024/02/11 10:21:08;;;;;;;;;;;;;;;21.39;29.51;97258.66;5022586;28;794;-77
2024/02/11 10:23:39;;;;;;;;;;;;;;;21.38;29.31;97265.56;5019816;28;822;-77
2024/02/11 10:26:09;;;;;;;;;;;;;;;21.45;29.30;97259.63;5007022;28;1238;-77
2024/02/11 10:28:37;;;;;;;;;;;;;;;21.17;29.54;97262.25;5002975;28;1121;-77
2024/02/11 10:31:03;;;;;;;;;;;;;;;21.65;28.93;97251.56;5022658;28;755;-78
2024/02/11 10:33:29;;;;;;;;;;;;;;;21.66;29.02;97253.19;5019760;28;809;-77
2024/02/11 10:36:03;;;;;;;;;;;;;;;21.88;28.86;97244.63;5023063;28;798;-77
2024/02/11 10:38:32;;;;;;;;;;;;;;;21.51;29.43;97235.16;5019612;28;1906;-77
2024/02/11 10:40:58;;;;;;;;;;;;;;;21.41;29.26;97222.22;5006070;28;1207;-77
2024/02/11 10:43:26;;;;;;;;;;;;;;;21.39;29.30;97221.88;5019222;28;751;-77
2024/02/11 10:45:52;;;;;;;;;;;;;;;21.49;29.01;97220.66;5008040;28;1112;-77
2024/02/11 10:48:21;;;;;;;;;;;;;;;21.02;29.69;97222.38;5024001;28;802;-77
2024/02/11 10:50:49;;;;;;;;;;;;;;;21.46;29.74;97215.94;5009788;28;1221;-77
2024/02/11 10:53:17;;;;;;;;;;;;;;;21.81;29.16;97208.06;5024003;28;1004;-77
2024/02/11 10:55:44;;;;;;;;;;;;;;;21.83;28.82;97203.53;5026757;28;892;-77
2024/02/11 10:58:09;;;;;;;;;;;;;;;21.60;29.45;97195.56;5023799;28;1987;-78
2024/02/11 11:00:35;;;;;;;;;;;;;;;21.37;29.62;97187.59;5024988;28;783;-77
2024/02/11 11:03:02;;;;;;;;;;;;;;;21.34;29.49;97192.13;5008054;28;1127;-77
2024/02/11 11:05:47;;;;;;;;;;;;;;;21.36;29.77;97186.03;5007947;28;775;-78
2024/02/11 11:08:12;;;;;;;;;;;;;;;21.60;29.49;97181.41;5023887;28;806;-77
2024/02/11 11:10:38;;;;;;;;;;;;;;;21.62;29.14;97178.91;5025536;28;751;-77
2024/02/11 11:13:04;;;;;;;;;;;;;;;21.37;29.71;97174.22;5003250;28;941;-78
2024/02/11 11:15:33;;;;;;;;;;;;;;;21.58;29.21;97181.09;5004243;28;868;-77
2024/02/11 11:18:00;;;;;;;;;;;;;;;21.29;29.68;97173.66;4971526;28;1883;-77
2024/02/11 11:20:26;;;;;;;;;;;;;;;21.18;29.63;97176.13;4971648;28;847;-78
2024/02/11 11:22:53;;;;;;;;;;;;;;;21.29;29.81;97162.34;5003314;28;924;-77
2024/02/11 11:25:20;;;;;;;;;;;;;;;21.41;29.73;97154.28;4970919;28;1238;-78
2024/02/11 11:27:46;;;;;;;;;;;;;;;21.70;29.14;97151.09;4971208;28;1495;-77
2024/02/11 11:30:11;;;;;;;;;;;;;;;21.76;29.00;97152.06;4987618;28;764;-77
2024/02/11 11:32:55;;;;;;;;;;;;;;;21.74;29.12;97141.19;5003942;28;881;-77
2024/02/11 11:35:21;;;;;;;;;;;;;;;21.51;29.24;97139.72;4987374;28;902;-77
2024/02/11 11:37:47;;;;;;;;;;;;;;;21.42;29.34;97131.19;5003369;28;1973;-78
2024/02/11 11:40:14;;;;;;;;;;;;;;;21.45;29.23;97135.09;5002911;28;756;-77
2024/02/11 11:42:40;;;;;;;;;;;;;;;21.49;29.30;97130.09;4948757;29;895;-77
2024/02/11 11:45:08;;;;;;;;;;;;;;;21.59;29.35;97123.22;5001735;28;992;-77
2024/02/11 11:47:34;;;;;;;;;;;;;;;21.85;28.97;97121.72;5003141;28;839;-77
2024/02/11 11:50:00;;;;;;;;;;;;;;;21.55;29.53;97123.38;4986147;28;1187;-77
2024/02/11 11:52:26;;;;;;;;;;;;;;;21.12;30.01;97117.78;4987950;28;926;-77
2024/02/11 11:54:51;;;;;;;;;;;;;;;21.23;29.79;97118.94;4985632;28;736;-77
2024/02/11 11:57:18;;;;;;;;;;;;;;;21.44;29.59;97122.22;4951960;28;1883;-77
2024/02/11 11:59:43;;;;;;;;;;;;;;;21.79;28.90;97125.66;4966789;28;1225;-77
2024/02/11 12:02:09;;;;;;;;;;;;;;;21.94;28.94;97108.84;4968832;28;1164;-77
2024/02/11 12:04:36;;;;;;;;;;;;;;;22.04;28.82;97101.94;4982874;28;824;-77
2024/02/11 12:07:05;;;;;;;;;;;;;;;21.64;29.39;97102.78;4985002;28;805;-77
2024/02/11 12:09:30;;;;;;;;;;;;;;;21.56;29.12;97095.84;4946896;29;933;-77
2024/02/11 12:11:56;;;;;;;;;;;;;;;21.59;29.25;97100.56;4948854;29;803;-77
2024/02/11 12:14:21;;;;;;;;;;;;;;;21.68;29.16;97097.78;4994258;28;902;-78
2024/02/11 12:16:48;;;;;;;;;;;;;;;21.54;29.75;97107.63;4987781;28;1977;-77
2024/02/11 12:19:13;;;;;;;;;;;;;;;21.84;29.29;97103.16;4985707;28;791;-77
2024/02/11 12:21:39;;;;;;;;;;;;;;;21.61;29.40;97092.41;5003406;28;943;-78
2024/02/11 12:24:08;;;;;;;;;;;;;;;21.70;29.41;97083.94;4985915;28;917;-77
2024/02/11 12:26:34;;;;;;;;;;;;;;;21.69;29.10;97090.84;5003286;28;831;-78
2024/02/11 12:29:00;;;;;;;;;;;;;;;21.38;29.66;97078.81;4968668;28;1149;-77
2024/02/11 12:31:25;;;;;;;;;;;;;;;21.32;30.06;97065.25;5002807;28;826;-77
2024/02/11 12:33:51;;;;;;;;;;;;;;;21.74;29.57;97067.59;4985764;28;942;-77
2024/02/11 12:36:26;;;;;;;;;;;;;;;21.84;29.08;97069.19;5003216;28;870;-77
2024/02/11 12:38:52;;;;;;;;;;;;;;;21.92;28.96;97054.72;4968876;28;1243;-77
2024/02/11 12:41:17;;;;;;;;;;;;;;;21.88;29.17;97069.03;4987341;28;978;-77
2024/02/11 12:43:43;;;;;;;;;;;;;;;21.72;28.97;97078.59;4984872;28;807;-78
2024/02/11 12:46:09;;;;;;;;;;;;;;;21.62;29.40;97065.69;4975696;28;1246;-77
2024/02/11 12:48:41;;;;;;;;;;;;;;;21.38;29.34;97064.66;5021467;28;1175;-77
2024/02/11 12:51:17;;;;;;;;;;;;;;;21.60;29.74;97051.19;5024067;28;830;-77
2024/02/11 12:53:45;;;;;;;;;;;;;;;21.77;29.41;97044.00;5022845;28;853;-78
2024/02/11 12:56:11;;;;;;;;;;;;;;;21.95;29.26;97016.97;5023832;28;1157;-77
2024/02/11 12:58:37;;;;;;;;;;;;;;;21.96;29.20;97015.69;5020421;28;1983;-77